Time;durP1;ratioP1;P1;durP2;ratioP2;P2;SDS_P1;SDS_P2;PMS_P1;PMS_P2;Temp;Humidity;BMP_temperature;BMP_pressure;BME280_temperature;BME280_humidity;BME280_pressure;Samples;Min_cycle;Max_cycle;Signal;HPM_P1;HPM_P2
2023/09/05 00:02:16;;;;;;;116.82;111.07;;;25.90;99.90;;;;;;5012194;28;20045;-74
2023/09/05 00:04:46;;;;;;;111.93;106.53;;;25.90;99.90;;;;;;5014203;28;20026;-74
2023/09/05 00:07:12;;;;;;;100.63;95.73;;;26.00;99.90;;;;;;5013738;28;20034;-75
2023/09/05 00:09:38;;;;;;;114.43;108.68;;;26.00;99.90;;;;;;5013733;28;20026;-74
2023/09/05 00:12:04;;;;;;;123.90;117.75;;;26.10;99.90;;;;;;5013729;28;20033;-73
2023/09/05 00:14:31;;;;;;;93.25;88.60;;;26.00;99.90;;;;;;5012611;28;20030;-74
2023/09/05 00:16:57;;;;;;;127.68;121.13;;;26.00;99.90;;;;;;5013029;28;20049;-75
2023/09/05 00:19:23;;;;;;;92.90;88.20;;;25.90;99.90;;;;;;5013776;28;20026;-75
2023/09/05 00:21:49;;;;;;;129.65;123.35;;;25.80;99.90;;;;;;5013123;28;20034;-74
2023/09/05 00:24:38;;;;;;;114.35;108.50;;;25.80;99.90;;;;;;5013753;28;20563;-74
2023/09/05 00:27:09;;;;;;;105.13;100.05;;;25.80;99.90;;;;;;5013505;28;20052;-75
2023/09/05 00:29:36;;;;;;;148.27;140.90;;;25.80;99.90;;;;;;5012321;28;20415;-74
2023/09/05 00:32:03;;;;;;;140.07;132.95;;;25.70;99.90;;;;;;5013013;28;20399;-75
2023/09/05 00:34:31;;;;;;;162.02;153.73;;;25.70;99.90;;;;;;5011908;28;20054;-75
2023/09/05 00:37:00;;;;;;;141.93;134.77;;;25.70;99.90;;;;;;5011590;28;20081;-75
2023/09/05 00:39:27;;;;;;;119.47;113.53;;;25.60;99.90;;;;;;5013403;28;20459;-75
2023/09/05 00:41:56;;;;;;;125.30;118.80;;;25.50;99.90;;;;;;4995582;28;20045;-75
2023/09/05 00:44:26;;;;;;;138.75;132.02;;;25.40;99.90;;;;;;5013296;28;20018;-75
2023/09/05 00:46:54;;;;;;;160.50;152.30;;;25.50;99.90;;;;;;5011304;28;20046;-74
2023/09/05 00:49:22;;;;;;;168.40;159.85;;;25.40;99.90;;;;;;5012020;28;20022;-74
2023/09/05 00:51:50;;;;;;;204.13;193.55;;;25.30;99.90;;;;;;5011382;28;20185;-75
2023/09/05 00:54:17;;;;;;;114.60;108.97;;;25.30;99.90;;;;;;5011869;28;20034;-74
2023/09/05 00:56:46;;;;;;;152.15;144.50;;;25.20;99.90;;;;;;5011666;28;20049;-75
2023/09/05 00:59:12;;;;;;;152.63;144.95;;;25.10;99.90;;;;;;5011792;28;20049;-75
2023/09/05 01:01:38;;;;;;;127.68;121.25;;;25.10;99.90;;;;;;5011006;28;20030;-75
2023/09/05 01:04:04;;;;;;;103.97;98.75;;;25.00;99.90;;;;;;5013283;28;20042;-74
2023/09/05 01:06:50;;;;;;;97.30;92.53;;;25.00;99.90;;;;;;5010919;28;20038;-75
2023/09/05 01:09:18;;;;;;;95.30;90.57;;;25.00;99.90;;;;;;5011782;28;20029;-75
2023/09/05 01:11:44;;;;;;;165.35;157.25;;;25.00;99.90;;;;;;5011256;28;20030;-74
2023/09/05 01:14:10;;;;;;;187.48;178.02;;;25.00;99.90;;;;;;5012872;28;20033;-75
2023/09/05 01:16:44;;;;;;;208.77;197.80;;;25.00;99.90;;;;;;5011023;28;20053;-74
2023/09/05 01:19:12;;;;;;;161.27;153.43;;;25.10;99.90;;;;;;5012829;28;20022;-75
2023/09/05 01:21:40;;;;;;;399.38;376.88;;;25.10;99.90;;;;;;5010975;28;20030;-74
2023/09/05 01:24:17;;;;;;;101.60;96.60;;;25.10;99.90;;;;;;5011635;28;20037;-74
2023/09/05 01:26:43;;;;;;;91.38;86.90;;;25.00;99.90;;;;;;5012265;28;20380;-75
2023/09/05 01:29:11;;;;;;;84.95;80.55;;;24.80;99.90;;;;;;5011544;28;20026;-75
2023/09/05 01:31:38;;;;;;;90.80;86.22;;;24.70;99.90;;;;;;5010579;28;20368;-75
2023/09/05 01:34:04;;;;;;;203.10;192.90;;;24.60;99.90;;;;;;5012692;28;20402;-74
2023/09/05 01:36:30;;;;;;;150.25;142.60;;;24.60;99.90;;;;;;5010795;28;20494;-75
2023/09/05 01:38:56;;;;;;;93.15;88.50;;;24.60;99.90;;;;;;5012360;28;20030;-75
2023/09/05 01:41:22;;;;;;;75.55;71.22;;;24.50;99.90;;;;;;5011008;28;20486;-75
2023/09/05 01:43:48;;;;;;;68.70;65.30;;;24.50;99.90;;;;;;5012473;28;20037;-75
2023/09/05 01:46:16;;;;;;;159.50;151.60;;;24.60;99.90;;;;;;5011738;28;20042;-74
2023/09/05 01:48:42;;;;;;;135.85;129.13;;;24.80;99.90;;;;;;5011307;28;20026;-75
2023/09/05 01:51:09;;;;;;;81.10;77.00;;;24.80;99.90;;;;;;5010743;28;20049;-75
2023/09/05 01:53:35;;;;;;;86.97;82.55;;;24.90;99.90;;;;;;5012175;28;20042;-75
2023/09/05 01:56:01;;;;;;;74.18;70.43;;;24.70;99.90;;;;;;5010370;28;20057;-75
2023/09/05 01:58:27;;;;;;;65.35;61.92;;;24.70;99.90;;;;;;5009007;28;20026;-75
2023/09/05 02:00:53;;;;;;;127.97;121.63;;;24.80;99.90;;;;;;5005404;28;20388;-74
2023/09/05 02:03:19;;;;;;;102.63;97.30;;;24.90;99.90;;;;;;5009228;28;20022;-74
2023/09/05 02:05:45;;;;;;;106.30;101.07;;;24.90;99.90;;;;;;5010388;28;20040;-74
2023/09/05 02:08:11;;;;;;;92.53;87.72;;;24.90;99.90;;;;;;5010956;28;20128;-74
2023/09/05 02:10:38;;;;;;;117.00;111.15;;;25.00;99.90;;;;;;5010476;28;20025;-75
2023/09/05 02:13:04;;;;;;;158.00;150.30;;;25.10;99.90;;;;;;5010476;28;20037;-75
2023/09/05 02:15:30;;;;;;;94.82;89.93;;;25.20;99.90;;;;;;5008617;28;20476;-74
2023/09/05 02:17:56;;;;;;;88.13;83.65;;;25.30;99.90;;;;;;5009512;28;20053;-75
2023/09/05 02:20:23;;;;;;;151.93;144.38;;;25.30;99.90;;;;;;5014064;28;20026;-75
2023/09/05 02:22:49;;;;;;;80.18;76.20;;;25.30;99.90;;;;;;5013093;28;20037;-74
2023/09/05 02:25:15;;;;;;;113.03;107.32;;;25.30;99.90;;;;;;5013964;28;20375;-75
2023/09/05 02:27:41;;;;;;;126.70;120.53;;;25.30;99.90;;;;;;5014078;28;20034;-75
2023/09/05 02:30:07;;;;;;;123.32;117.15;;;25.20;99.90;;;;;;5014622;28;20042;-74
2023/09/05 02:32:34;;;;;;;167.02;158.88;;;25.30;99.90;;;;;;4992628;28;20034;-75
2023/09/05 02:35:00;;;;;;;83.32;79.05;;;25.30;99.90;;;;;;5014110;28;20061;-75
2023/09/05 02:37:26;;;;;;;92.35;87.43;;;25.20;99.90;;;;;;5013473;28;20042;-74
2023/09/05 02:39:52;;;;;;;134.75;128.10;;;25.10;99.90;;;;;;5015719;28;20036;-75
2023/09/05 02:42:18;;;;;;;158.30;150.45;;;25.00;99.90;;;;;;5013840;28;20042;-75
2023/09/05 02:44:45;;;;;;;152.90;145.25;;;25.10;99.90;;;;;;5015784;28;20060;-74
2023/09/05 02:47:11;;;;;;;140.95;134.10;;;25.10;99.90;;;;;;5014567;28;20042;-75
2023/09/05 02:49:37;;;;;;;114.72;109.07;;;25.00;99.90;;;;;;5015521;28;20030;-75
2023/09/05 02:52:03;;;;;;;136.93;129.68;;;25.00;99.90;;;;;;5015072;28;20030;-75
2023/09/05 02:54:29;;;;;;;145.18;137.95;;;25.10;99.90;;;;;;5014115;28;20060;-75
2023/09/05 02:56:56;;;;;;;161.05;153.30;;;25.10;99.90;;;;;;5014972;28;20053;-74
2023/09/05 02:59:22;;;;;;;101.43;96.40;;;25.10;99.90;;;;;;5015345;28;20494;-75
2023/09/05 03:01:48;;;;;;;112.40;106.65;;;25.00;99.90;;;;;;5012890;28;20048;-75
2023/09/05 03:04:15;;;;;;;97.55;92.63;;;25.00;99.90;;;;;;5015262;28;20026;-77
2023/09/05 03:06:41;;;;;;;109.80;104.38;;;24.90;99.90;;;;;;5013789;28;20046;-77
2023/09/05 03:09:07;;;;;;;113.22;107.57;;;24.80;99.90;;;;;;5015072;28;20030;-77
2023/09/05 03:11:33;;;;;;;109.70;104.07;;;24.60;99.90;;;;;;5014769;28;20041;-77
2023/09/05 03:14:01;;;;;;;137.93;130.93;;;24.60;99.90;;;;;;5015119;28;20026;-77
2023/09/05 03:16:28;;;;;;;132.82;126.03;;;24.60;99.90;;;;;;5012686;28;20049;-77
2023/09/05 03:18:59;;;;;;;96.50;91.75;;;24.40;99.90;;;;;;5013737;28;20037;-77
2023/09/05 03:21:28;;;;;;;81.88;77.63;;;24.50;99.90;;;;;;5014716;28;20368;-76
2023/09/05 03:23:55;;;;;;;110.43;104.88;;;24.50;99.90;;;;;;5014922;28;20030;-76
2023/09/05 03:26:21;;;;;;;142.52;135.05;;;24.60;99.90;;;;;;5014588;28;20034;-76
2023/09/05 03:28:47;;;;;;;99.93;94.90;;;24.60;99.90;;;;;;5014661;28;20483;-76
2023/09/05 03:31:13;;;;;;;139.35;132.18;;;24.60;99.90;;;;;;5013714;28;20034;-76
2023/09/05 03:33:39;;;;;;;107.47;102.05;;;24.60;99.90;;;;;;5013519;28;20035;-77
2023/09/05 03:36:06;;;;;;;101.20;95.90;;;24.60;99.90;;;;;;5013170;28;20471;-76
2023/09/05 03:38:32;;;;;;;122.28;116.20;;;24.60;99.90;;;;;;5013608;28;20046;-76
2023/09/05 03:40:58;;;;;;;188.68;179.50;;;24.60;99.90;;;;;;5014142;28;20034;-76
2023/09/05 03:43:24;;;;;;;110.28;104.60;;;24.70;99.90;;;;;;5013381;28;20026;-75
2023/09/05 03:45:51;;;;;;;199.43;189.48;;;24.60;99.90;;;;;;5012168;28;20208;-77
2023/09/05 03:48:17;;;;;;;173.38;164.48;;;24.60;99.90;;;;;;5014220;28;20041;-77
2023/09/05 03:50:43;;;;;;;106.97;101.63;;;24.60;99.90;;;;;;5014108;28;20026;-77
2023/09/05 03:53:09;;;;;;;111.90;106.07;;;24.60;99.90;;;;;;5014216;28;20045;-77
2023/09/05 03:55:35;;;;;;;128.48;121.95;;;24.30;99.90;;;;;;5013988;28;20026;-76
2023/09/05 03:58:02;;;;;;;235.85;223.63;;;24.10;99.90;;;;;;5014148;28;20044;-76
2023/09/05 04:00:29;;;;;;;137.82;130.82;;;24.10;99.90;;;;;;5011960;28;20442;-76
2023/09/05 04:02:56;;;;;;;101.82;96.13;;;24.20;99.90;;;;;;5014088;28;20033;-76
2023/09/05 04:05:23;;;;;;;110.13;104.38;;;23.90;99.90;;;;;;5012643;28;20030;-77
2023/09/05 04:07:49;;;;;;;88.22;83.70;;;24.00;99.90;;;;;;5013900;28;20022;-76
2023/09/05 04:10:15;;;;;;;120.03;113.97;;;24.20;99.90;;;;;;5013769;28;20036;-76
2023/09/05 04:12:41;;;;;;;88.88;84.20;;;24.00;99.90;;;;;;5013947;28;20030;-76
2023/09/05 04:15:07;;;;;;;78.18;74.05;;;24.10;99.90;;;;;;5013168;28;20030;-74
2023/09/05 04:17:33;;;;;;;77.85;73.95;;;24.20;99.90;;;;;;5012524;28;20398;-75
2023/09/05 04:20:00;;;;;;;93.53;88.55;;;24.00;99.90;;;;;;5013751;28;20026;-75
2023/09/05 04:22:29;;;;;;;124.32;117.80;;;24.10;99.90;;;;;;5013621;28;20045;-75
2023/09/05 04:24:56;;;;;;;127.53;120.80;;;24.10;99.90;;;;;;5013802;28;20030;-75
2023/09/05 04:27:23;;;;;;;89.32;84.80;;;24.20;99.90;;;;;;5013460;28;20034;-76
2023/09/05 04:29:54;;;;;;;105.50;100.07;;;24.30;99.90;;;;;;5013291;28;20387;-76
2023/09/05 04:32:28;;;;;;;86.57;82.20;;;24.30;99.90;;;;;;5011446;28;20479;-76
2023/09/05 04:34:56;;;;;;;91.13;86.18;;;24.30;99.90;;;;;;5012369;28;20022;-75
2023/09/05 04:37:22;;;;;;;89.85;84.93;;;24.30;99.90;;;;;;5011588;28;20049;-76
2023/09/05 04:39:48;;;;;;;82.63;78.15;;;24.00;99.90;;;;;;5013553;28;20026;-75
2023/09/05 04:42:14;;;;;;;80.07;75.88;;;24.10;99.90;;;;;;5011335;28;20044;-75
2023/09/05 04:44:40;;;;;;;80.53;76.00;;;24.10;99.90;;;;;;5012929;28;20463;-75
2023/09/05 04:47:26;;;;;;;148.18;140.57;;;24.20;99.90;;;;;;5012603;28;20049;-75
2023/09/05 04:49:53;;;;;;;98.63;93.63;;;24.10;99.90;;;;;;5011964;28;20491;-76
2023/09/05 04:52:20;;;;;;;82.28;77.70;;;24.10;99.90;;;;;;5011814;28;20030;-75
2023/09/05 04:54:47;;;;;;;86.32;81.80;;;24.10;99.90;;;;;;5011783;28;20058;-75
2023/09/05 04:57:13;;;;;;;82.75;78.22;;;24.10;99.90;;;;;;4995161;28;20057;-71
2023/09/05 04:59:40;;;;;;;80.55;76.22;;;24.10;99.90;;;;;;5011919;28;20476;-75
2023/09/05 05:02:06;;;;;;;82.35;78.10;;;24.10;99.90;;;;;;5011171;28;20510;-75
2023/09/05 05:04:32;;;;;;;84.35;79.95;;;24.20;99.90;;;;;;5011890;28;20034;-76
2023/09/05 05:06:59;;;;;;;69.80;66.25;;;24.10;99.90;;;;;;5011787;28;20034;-75
2023/09/05 05:09:25;;;;;;;85.88;81.53;;;23.70;99.90;;;;;;5013016;28;20029;-74
2023/09/05 05:11:51;;;;;;;86.53;81.70;;;23.40;99.90;;;;;;5010911;28;20483;-75
2023/09/05 05:14:17;;;;;;;93.75;88.25;;;23.40;99.90;;;;;;5012778;28;20037;-75
2023/09/05 05:16:43;;;;;;;89.97;85.28;;;23.50;99.90;;;;;;5011017;28;20429;-75
2023/09/05 05:19:12;;;;;;;118.72;112.65;;;23.50;99.90;;;;;;5012723;28;20030;-75
2023/09/05 05:21:39;;;;;;;106.80;101.18;;;23.50;99.90;;;;;;5011369;28;20038;-76
2023/09/05 05:24:08;;;;;;;85.45;80.75;;;23.50;99.90;;;;;;5013122;28;20038;-74
2023/09/05 05:26:34;;;;;;;85.28;80.63;;;23.60;99.90;;;;;;5011069;28;20037;-75
2023/09/05 05:29:00;;;;;;;87.07;82.63;;;23.60;99.90;;;;;;5012716;28;20029;-76
2023/09/05 05:31:26;;;;;;;87.32;82.68;;;23.50;99.90;;;;;;5011786;28;20376;-75
2023/09/05 05:33:53;;;;;;;117.90;111.63;;;23.50;99.90;;;;;;5011451;28;20034;-76
2023/09/05 05:36:19;;;;;;;98.53;93.32;;;23.60;99.90;;;;;;5012166;28;20041;-75
2023/09/05 05:38:45;;;;;;;121.20;114.75;;;23.70;99.90;;;;;;5011403;28;20029;-74
2023/09/05 05:41:11;;;;;;;133.73;126.60;;;23.80;99.90;;;;;;5010941;28;20044;-77
2023/09/05 05:43:38;;;;;;;121.82;115.18;;;23.80;99.90;;;;;;5012579;28;20041;-75
2023/09/05 05:46:04;;;;;;;75.57;71.40;;;23.80;99.90;;;;;;5011772;28;20038;-75
2023/09/05 05:48:30;;;;;;;88.25;83.47;;;23.60;99.90;;;;;;5011081;28;20046;-76
2023/09/05 05:50:56;;;;;;;98.43;93.15;;;23.60;99.90;;;;;;5011009;28;20033;-75
2023/09/05 05:53:23;;;;;;;207.45;196.45;;;23.70;99.90;;;;;;5012617;28;20046;-76
2023/09/05 05:55:49;;;;;;;92.97;87.57;;;23.70;99.90;;;;;;5015917;28;20081;-75
2023/09/05 05:58:15;;;;;;;87.68;83.22;;;23.70;99.90;;;;;;5016303;28;20041;-75
2023/09/05 06:00:50;;;;;;;79.65;75.30;;;23.70;99.90;;;;;;5015734;28;20494;-75
2023/09/05 06:03:20;;;;;;;135.07;128.02;;;23.80;99.90;;;;;;5015215;28;20022;-75
2023/09/05 06:05:46;;;;;;;66.88;63.22;;;23.80;99.90;;;;;;5014809;28;20053;-75
2023/09/05 06:08:12;;;;;;;85.30;80.95;;;23.80;99.90;;;;;;5015082;28;20030;-75
2023/09/05 06:10:39;;;;;;;79.75;74.97;;;23.60;99.90;;;;;;4998333;28;20053;-75
2023/09/05 06:13:05;;;;;;;73.85;69.75;;;23.60;99.90;;;;;;5016317;28;20041;-75
2023/09/05 06:15:34;;;;;;;57.33;54.13;;;23.70;99.90;;;;;;5015573;28;20041;-74
2023/09/05 06:18:00;;;;;;;63.78;60.40;;;23.60;99.90;;;;;;4998610;28;20045;-75
2023/09/05 06:20:28;;;;;;;63.90;60.13;;;23.40;99.90;;;;;;5014749;28;20030;-75
2023/09/05 06:22:54;;;;;;;60.85;57.50;;;23.30;99.90;;;;;;5014761;28;20472;-75
2023/09/05 06:25:21;;;;;;;60.03;56.78;;;23.30;99.90;;;;;;5014126;28;20048;-75
2023/09/05 06:27:48;;;;;;;56.17;52.65;;;23.40;99.90;;;;;;5014736;28;20037;-75
2023/09/05 06:30:14;;;;;;;85.65;81.15;;;23.40;99.90;;;;;;5014035;28;20037;-76
2023/09/05 06:32:41;;;;;;;61.80;58.22;;;23.60;99.90;;;;;;5014520;28;20026;-76
2023/09/05 06:35:09;;;;;;;68.75;64.82;;;23.70;99.90;;;;;;5015859;28;20029;-75
2023/09/05 06:37:36;;;;;;;61.95;58.47;;;23.80;99.90;;;;;;5015318;28;20033;-75
2023/09/05 06:40:15;;;;;;;70.30;66.45;;;23.90;99.90;;;;;;5014109;28;20387;-75
2023/09/05 06:42:42;;;;;;;61.20;57.25;;;24.10;99.90;;;;;;4999537;28;20042;-75
2023/09/05 06:45:08;;;;;;;109.57;103.60;;;24.10;99.90;;;;;;5013857;28;20025;-74
2023/09/05 06:47:34;;;;;;;89.72;84.93;;;24.10;99.90;;;;;;5014098;28;20042;-75
2023/09/05 06:50:01;;;;;;;82.78;78.43;;;24.20;99.90;;;;;;5015505;28;20037;-76
2023/09/05 06:52:27;;;;;;;96.80;91.65;;;24.50;99.90;;;;;;5013948;28;20044;-76
2023/09/05 06:54:53;;;;;;;111.53;105.78;;;24.60;99.90;;;;;;5014991;28;20049;-75
2023/09/05 06:57:20;;;;;;;117.22;111.28;;;24.60;99.90;;;;;;5014882;28;20038;-75
2023/09/05 06:59:46;;;;;;;130.15;123.57;;;24.50;99.90;;;;;;5015446;28;20022;-75
2023/09/05 07:02:12;;;;;;;134.23;127.20;;;24.50;99.90;;;;;;5014452;28;20042;-75
2023/09/05 07:04:38;;;;;;;136.73;129.27;;;24.70;99.90;;;;;;5014749;28;20030;-75
2023/09/05 07:07:04;;;;;;;157.10;149.18;;;24.80;99.90;;;;;;5014854;28;20037;-75
2023/09/05 07:09:30;;;;;;;165.70;157.05;;;24.90;99.90;;;;;;5014806;28;20505;-75
2023/09/05 07:11:57;;;;;;;148.80;140.80;;;24.90;99.90;;;;;;5013534;28;20037;-76
2023/09/05 07:14:23;;;;;;;197.60;187.55;;;25.00;99.90;;;;;;5013881;28;20026;-75
2023/09/05 07:16:49;;;;;;;217.63;206.68;;;25.10;99.90;;;;;;5013142;28;20041;-75
2023/09/05 07:19:16;;;;;;;191.88;182.02;;;25.30;99.90;;;;;;5013771;28;20088;-75
2023/09/05 07:21:43;;;;;;;228.90;217.52;;;25.30;99.90;;;;;;5014628;28;20030;-75
2023/09/05 07:24:13;;;;;;;234.25;222.60;;;25.50;99.90;;;;;;5014663;28;20030;-75
2023/09/05 07:26:40;;;;;;;205.75;195.50;;;25.50;99.90;;;;;;5013561;28;20041;-75
2023/09/05 07:29:08;;;;;;;220.55;209.32;;;25.50;99.90;;;;;;5015051;28;20038;-75
2023/09/05 07:31:34;;;;;;;229.63;218.00;;;25.60;99.90;;;;;;5012686;28;20029;-75
2023/09/05 07:34:00;;;;;;;229.52;217.40;;;25.80;99.90;;;;;;5014593;28;20041;-75
2023/09/05 07:36:27;;;;;;;229.73;217.95;;;25.80;99.90;;;;;;5013152;28;20030;-76
2023/09/05 07:38:54;;;;;;;235.75;223.90;;;25.90;99.90;;;;;;5014269;28;20045;-75
2023/09/05 07:41:20;;;;;;;256.60;244.00;;;26.00;99.90;;;;;;5014384;28;20029;-75
2023/09/05 07:43:46;;;;;;;303.60;287.35;;;26.20;99.90;;;;;;5013157;28;20041;-75
2023/09/05 07:46:13;;;;;;;305.17;289.50;;;26.50;99.90;;;;;;5013568;28;20041;-75
2023/09/05 07:48:39;;;;;;;314.20;298.05;;;26.80;99.90;;;;;;5014599;28;20038;-75
2023/09/05 07:51:07;;;;;;;328.58;311.65;;;26.80;99.90;;;;;;5013980;28;20033;-75
2023/09/05 07:53:36;;;;;;;365.10;346.15;;;26.90;99.90;;;;;;5012703;28;20038;-76
2023/09/05 07:56:03;;;;;;;339.33;321.63;;;27.00;99.90;;;;;;5013974;28;20026;-75
2023/09/05 07:58:29;;;;;;;344.60;326.63;;;27.00;99.90;;;;;;5013910;28;20037;-75
2023/09/05 08:00:56;;;;;;;328.33;311.40;;;27.00;99.90;;;;;;5013476;28;20479;-75
2023/09/05 08:03:22;;;;;;;320.67;304.42;;;27.10;99.90;;;;;;5014164;28;20036;-75
2023/09/05 08:05:50;;;;;;;312.27;296.33;;;27.10;99.90;;;;;;5012335;28;20459;-75
2023/09/05 08:08:17;;;;;;;333.52;316.05;;;27.20;99.90;;;;;;5012934;28;20467;-75
2023/09/05 08:10:43;;;;;;;329.15;311.98;;;27.10;99.90;;;;;;5013933;28;20033;-75
2023/09/05 08:13:14;;;;;;;355.55;336.55;;;27.00;99.90;;;;;;5014402;28;20034;-75
2023/09/05 08:15:43;;;;;;;305.08;289.52;;;27.10;99.90;;;;;;5012663;28;20041;-75
2023/09/05 08:18:13;;;;;;;319.55;303.08;;;27.00;99.90;;;;;;5013601;28;20054;-75
2023/09/05 08:20:42;;;;;;;336.30;318.80;;;27.00;99.90;;;;;;5011694;28;20037;-75
2023/09/05 08:23:10;;;;;;;281.90;267.50;;;27.10;99.90;;;;;;5012678;28;20041;-75
2023/09/05 08:25:36;;;;;;;288.30;273.63;;;27.40;99.90;;;;;;5011697;28;20034;-75
2023/09/05 08:28:02;;;;;;;248.45;235.43;;;27.50;99.90;;;;;;5012531;28;20034;-76
2023/09/05 08:30:28;;;;;;;229.50;217.70;;;27.50;99.50;;;;;;5013042;28;20041;-75
2023/09/05 08:32:55;;;;;;;221.27;209.75;;;27.60;99.60;;;;;;5012321;28;20395;-75
2023/09/05 08:35:21;;;;;;;261.67;247.85;;;27.90;99.90;;;;;;5012879;28;20352;-75
2023/09/05 08:37:47;;;;;;;192.40;182.55;;;28.20;99.90;;;;;;5013441;28;20498;-75
2023/09/05 08:40:15;;;;;;;174.32;165.35;;;28.40;99.40;;;;;;5011653;28;20412;-75
2023/09/05 08:42:42;;;;;;;173.93;165.07;;;28.70;99.60;;;;;;5012301;28;20030;-75
2023/09/05 08:45:11;;;;;;;196.15;186.07;;;28.70;98.50;;;;;;5012868;28;20033;-75
2023/09/05 08:47:38;;;;;;;197.70;187.70;;;29.00;99.20;;;;;;4993798;28;20475;-76
2023/09/05 08:50:05;;;;;;;208.05;197.15;;;28.90;97.80;;;;;;4996133;28;20030;-76
2023/09/05 08:52:37;;;;;;;214.43;203.52;;;29.10;97.90;;;;;;5012166;28;20045;-76
2023/09/05 08:55:03;;;;;;;258.55;245.38;;;29.30;98.00;;;;;;5013058;28;20486;-75
2023/09/05 08:57:30;;;;;;;211.80;201.40;;;29.50;97.90;;;;;;5011479;28;20042;-75
2023/09/05 08:59:56;;;;;;;263.10;249.80;;;29.20;97.10;;;;;;5011907;28;20041;-75
2023/09/05 09:02:22;;;;;;;208.60;197.43;;;29.40;98.80;;;;;;5011186;28;20491;-75
2023/09/05 09:04:49;;;;;;;208.50;196.52;;;29.60;98.50;;;;;;5011584;28;20041;-74
2023/09/05 09:07:15;;;;;;;210.15;199.27;;;29.50;96.70;;;;;;5013085;28;20049;-75
2023/09/05 09:09:42;;;;;;;211.25;200.27;;;29.60;97.60;;;;;;5011821;28;20029;-75
2023/09/05 09:12:08;;;;;;;221.38;209.43;;;29.80;97.90;;;;;;5012546;28;20048;-75
2023/09/05 09:14:35;;;;;;;241.52;228.75;;;30.10;97.70;;;;;;5012874;28;20018;-75
2023/09/05 09:17:05;;;;;;;252.55;239.32;;;30.30;96.90;;;;;;5012015;28;20061;-75
2023/09/05 09:19:31;;;;;;;261.10;248.10;;;30.50;96.50;;;;;;5011436;28;20034;-75
2023/09/05 09:22:00;;;;;;;266.42;252.73;;;30.60;96.50;;;;;;5012537;28;20040;-75
2023/09/05 09:24:34;;;;;;;255.50;242.73;;;30.50;95.60;;;;;;5012681;28;20033;-75
2023/09/05 09:27:01;;;;;;;266.08;251.85;;;30.50;95.90;;;;;;5011014;28;20021;-75
2023/09/05 09:29:27;;;;;;;722.75;461.50;;;30.70;96.10;;;;;;5012633;28;20022;-75
2023/09/05 09:32:04;;;;;;;285.90;271.38;;;30.80;95.70;;;;;;5011830;28;20506;-76
2023/09/05 09:34:31;;;;;;;291.17;276.20;;;30.80;95.30;;;;;;5011184;28;20478;-75
2023/09/05 09:36:58;;;;;;;1999.90;999.90;;;30.80;94.40;;;;;;5011064;28;20471;-76
2023/09/05 09:39:24;;;;;;;284.60;270.05;;;30.70;94.90;;;;;;5012733;28;20056;-75
2023/09/05 09:41:50;;;;;;;286.13;271.30;;;30.80;95.60;;;;;;5010916;28;20049;-75
2023/09/05 09:44:34;;;;;;;1999.90;999.90;;;31.00;95.60;;;;;;5012348;28;20624;-75
2023/09/05 09:47:01;;;;;;;1999.90;999.90;;;31.00;95.20;;;;;;5011579;28;20042;-75
2023/09/05 09:49:28;;;;;;;1999.90;999.90;;;31.10;95.20;;;;;;5011075;28;20022;-75
2023/09/05 09:51:56;;;;;;;1999.90;999.90;;;31.10;95.40;;;;;;5011993;28;20041;-76
2023/09/05 09:54:38;;;;;;;1999.90;999.90;;;31.20;95.40;;;;;;5012194;28;20053;-75
2023/09/05 09:57:04;;;;;;;1999.90;999.90;;;31.30;95.60;;;;;;5010762;28;20475;-75
2023/09/05 09:59:37;;;;;;;1999.90;999.90;;;31.20;94.30;;;;;;5011320;28;20026;-75
2023/09/05 10:02:10;;;;;;;1999.90;999.90;;;31.00;94.40;;;;;;5011179;28;20041;-76
2023/09/05 10:04:36;;;;;;;1999.90;999.90;;;31.10;95.10;;;;;;5011120;28;20038;-75
2023/09/05 10:07:02;;;;;;;1999.90;999.90;;;31.30;95.30;;;;;;5011911;28;20033;-75
2023/09/05 10:09:30;;;;;;;1999.90;999.90;;;31.40;95.70;;;;;;5012271;28;20026;-75
2023/09/05 10:11:59;;;;;;;1999.90;999.90;;;31.40;94.50;;;;;;5012275;28;20049;-75
2023/09/05 10:14:25;;;;;;;1999.90;999.90;;;31.50;94.70;;;;;;5010993;28;20022;-75
2023/09/05 10:16:51;;;;;;;1999.90;999.90;;;31.60;94.40;;;;;;5010086;28;20045;-75
2023/09/05 10:19:17;;;;;;;1999.90;999.90;;;31.70;93.20;;;;;;5010994;28;20038;-75
2023/09/05 10:21:45;;;;;;;1999.90;999.90;;;31.80;92.60;;;;;;5010790;28;20045;-75
2023/09/05 10:24:11;;;;;;;1999.90;999.90;;;31.80;91.90;;;;;;5011001;28;20026;-76
2023/09/05 10:26:38;;;;;;;1999.90;999.90;;;31.90;92.10;;;;;;5011914;28;20049;-76
2023/09/05 10:29:43;;;;;;;1999.90;999.90;;;32.00;90.70;;;;;;4994907;28;20046;-76
2023/09/05 10:32:10;;;;;;;1999.90;999.90;;;32.00;91.00;;;;;;4969306;28;20179;-76
2023/09/05 10:34:48;;;;;;;1999.90;999.90;;;32.00;91.00;;;;;;4954857;28;20038;-76
2023/09/05 10:37:15;;;;;;;1999.90;999.90;;;32.00;90.90;;;;;;4970534;28;20492;-75
2023/09/05 10:39:44;;;;;;;1999.90;999.90;;;32.10;90.90;;;;;;4956482;28;20047;-76
2023/09/05 10:42:13;;;;;;;1999.90;999.90;;;32.10;90.90;;;;;;4974253;28;20035;-75
2023/09/05 10:44:41;;;;;;;1999.90;999.90;;;32.00;90.70;;;;;;4974044;28;20278;-76
2023/09/05 10:47:26;;;;;;;1999.90;999.90;;;32.10;91.30;;;;;;4973210;28;20079;-75
2023/09/05 10:49:58;;;;;;;1999.90;999.90;;;32.20;90.80;;;;;;4974321;28;20054;-76
2023/09/05 10:52:27;;;;;;;1999.90;999.90;;;32.20;91.30;;;;;;4974055;28;20039;-76
2023/09/05 10:54:53;;;;;;;1999.90;999.90;;;32.20;90.50;;;;;;4958354;28;20432;-75
2023/09/05 10:57:50;;;;;;;1999.90;999.90;;;32.30;90.80;;;;;;4957421;28;20054;-75
2023/09/05 11:00:22;;;;;;;1999.90;999.90;;;32.30;91.50;;;;;;4971212;28;20054;-75
2023/09/05 11:02:48;;;;;;;1999.90;999.90;;;32.40;91.00;;;;;;4991823;28;20038;-74
2023/09/05 11:05:17;;;;;;;1999.90;999.90;;;32.40;90.70;;;;;;5014950;28;20375;-75
2023/09/05 11:07:50;;;;;;;1999.90;999.90;;;32.50;91.10;;;;;;5015152;28;20025;-76
2023/09/05 11:10:26;;;;;;;1999.90;999.90;;;32.60;90.80;;;;;;5013641;28;20033;-75
2023/09/05 11:12:53;;;;;;;1999.90;999.90;;;32.60;91.10;;;;;;5015559;28;20399;-76
2023/09/05 11:15:31;;;;;;;1999.90;999.90;;;32.60;90.50;;;;;;5014030;28;20467;-75
2023/09/05 11:18:01;;;;;;;1999.90;999.90;;;32.60;90.50;;;;;;5014895;28;20021;-75
2023/09/05 11:20:46;;;;;;;1999.90;999.90;;;32.70;90.20;;;;;;5014711;28;20033;-75
2023/09/05 11:23:17;;;;;;;1999.90;999.90;;;32.70;90.70;;;;;;5013764;28;20030;-76
2023/09/05 11:25:46;;;;;;;1999.90;999.90;;;32.70;90.50;;;;;;5013376;28;20036;-75
2023/09/05 11:28:12;;;;;;;1999.90;999.90;;;32.70;90.50;;;;;;5015269;28;20041;-76
2023/09/05 11:30:42;;;;;;;1999.90;999.90;;;32.70;90.50;;;;;;5012424;28;20285;-75
2023/09/05 11:33:14;;;;;;;1999.90;999.90;;;32.80;90.50;;;;;;5013593;28;20045;-76
2023/09/05 11:35:41;;;;;;;1999.90;999.90;;;32.80;90.40;;;;;;5014223;28;20037;-76
2023/09/05 11:38:08;;;;;;;1999.90;999.90;;;32.80;90.90;;;;;;5014728;28;20041;-75
2023/09/05 11:40:35;;;;;;;1999.90;999.90;;;32.90;90.70;;;;;;5012487;28;20022;-75
2023/09/05 11:43:10;;;;;;;1999.90;999.90;;;33.00;90.70;;;;;;5012380;28;20054;-75
2023/09/05 11:45:37;;;;;;;1999.90;999.90;;;33.00;90.30;;;;;;5008410;28;20030;-75
2023/09/05 11:48:04;;;;;;;1999.90;999.90;;;33.00;90.70;;;;;;5013241;28;20049;-76
2023/09/05 11:50:33;;;;;;;1999.90;999.90;;;33.10;90.90;;;;;;4996685;28;20037;-76
2023/09/05 11:52:59;;;;;;;1999.90;999.90;;;33.10;90.50;;;;;;5012999;28;20285;-75
2023/09/05 11:55:26;;;;;;;1999.90;999.90;;;33.10;90.70;;;;;;5012894;28;20029;-75
2023/09/05 11:57:55;;;;;;;1999.90;999.90;;;33.20;90.60;;;;;;5003465;28;20038;-75
2023/09/05 12:00:23;;;;;;;1999.90;999.90;;;33.20;91.20;;;;;;5014698;28;20057;-75
2023/09/05 12:02:53;;;;;;;1999.90;999.90;;;33.30;90.10;;;;;;5014254;28;20026;-75
2023/09/05 12:05:19;;;;;;;1999.90;999.90;;;33.20;90.40;;;;;;5013916;28;20018;-75
2023/09/05 12:07:49;;;;;;;1999.90;999.90;;;33.20;89.80;;;;;;5013907;28;20053;-75
2023/09/05 12:10:15;;;;;;;;;;;33.30;90.60;;;;;;5014203;28;20018;-76
2023/09/05 12:12:58;;;;;;;1999.90;999.90;;;33.30;90.50;;;;;;5012809;28;19913;-75
2023/09/05 12:15:29;;;;;;;1999.90;999.90;;;33.40;89.40;;;;;;5012057;28;20029;-75